Time;durP1;ratioP1;P1;durP2;ratioP2;P2;SDS_P1;SDS_P2;PMS_P1;PMS_P2;Temp;Humidity;BMP_temperature;BMP_pressure;BME280_temperature;BME280_humidity;BME280_pressure;Samples;Min_cycle;Max_cycle;Signal;HPM_P1;HPM_P2
2022/02/03 00:00:22;;;;;;;2.20;1.70;;;5.00;99.90;;;;;;5092477;28;20227;-91
2022/02/03 00:03:06;;;;;;;4.93;1.50;;;4.80;99.90;;;;;;5097127;28;20188;-90
2022/02/03 00:05:46;;;;;;;3.23;1.27;;;4.60;99.90;;;;;;5097250;28;20191;-94
2022/02/03 00:25:09;;;;;;;1.40;0.97;;;4.40;99.90;;;;;;5089406;28;20203;-92
2022/02/03 00:27:52;;;;;;;1.20;0.93;;;4.30;99.90;;;;;;5073170;28;20227;-94
2022/02/03 00:30:35;;;;;;;1.83;1.40;;;4.30;99.90;;;;;;5086398;28;20207;-93
2022/02/03 00:35:57;;;;;;;1.20;0.90;;;4.30;99.90;;;;;;5089736;28;20214;-93
2022/02/03 00:49:59;;;;;;;1.43;1.30;;;4.10;99.90;;;;;;5090702;28;20209;-91
2022/02/03 00:52:33;;;;;;;2.83;1.60;;;4.00;99.90;;;;;;5056881;28;20214;-92
2022/02/03 00:55:07;;;;;;;1.47;1.37;;;4.00;99.90;;;;;;5091005;28;20203;-92
2022/02/03 00:57:44;;;;;;;3.77;1.50;;;4.10;99.90;;;;;;5088847;28;20199;-92
2022/02/03 01:00:17;;;;;;;3.67;1.90;;;4.00;99.90;;;;;;5090720;28;20211;-93
2022/02/03 01:03:08;;;;;;;3.73;1.87;;;4.10;99.90;;;;;;5090871;28;20200;-91
2022/02/03 01:05:43;;;;;;;2.20;1.73;;;4.00;99.90;;;;;;5089146;28;20204;-92
2022/02/03 01:08:19;;;;;;;2.10;1.80;;;4.00;99.90;;;;;;5094949;28;20249;-92
2022/02/03 01:11:00;;;;;;;1.90;1.80;;;3.90;99.90;;;;;;5109220;28;20211;-93
2022/02/03 01:13:40;;;;;;;2.13;1.87;;;3.90;99.90;;;;;;5482184;22;20231;-92
2022/02/03 01:16:22;;;;;;;1.80;1.70;;;3.90;99.90;;;;;;5094219;28;20191;-92
2022/02/03 01:33:30;;;;;;;2.87;2.37;;;3.90;99.90;;;;;;5036817;28;20194;-92
2022/02/03 01:47:10;;;;;;;3.00;2.73;;;3.80;99.90;;;;;;5813311;22;20269;-93
2022/02/03 01:52:39;;;;;;;4.70;3.03;;;3.90;99.90;;;;;;5018477;28;20202;-91
2022/02/03 01:55:14;;;;;;;3.00;2.67;;;3.90;99.90;;;;;;5020491;28;20217;-92
2022/02/03 01:57:58;;;;;;;3.00;2.50;;;3.80;99.90;;;;;;5795739;22;20483;-84
2022/02/03 02:05:53;;;;;;;4.03;2.50;;;3.80;99.90;;;;;;5202907;22;20260;-91
2022/02/03 02:08:40;;;;;;;3.57;2.33;;;3.80;99.90;;;;;;5018768;28;20217;-93
2022/02/03 02:11:45;;;;;;;2.73;2.53;;;3.90;99.90;;;;;;5015010;28;20206;-92
2022/02/03 02:15:02;;;;;;;2.50;2.07;;;3.80;99.90;;;;;;5018669;28;20198;-91
2022/02/03 02:37:56;;;;;;;4.13;2.13;;;3.80;99.90;;;;;;4936237;28;20205;-91
2022/02/03 02:41:01;;;;;;;3.90;2.07;;;3.90;99.90;;;;;;4979070;28;20236;-92
2022/02/03 02:43:47;;;;;;;4.57;1.97;;;3.80;99.90;;;;;;4975256;28;20199;-92
2022/02/03 02:46:24;;;;;;;3.30;2.10;;;3.80;99.90;;;;;;4975962;29;20267;-93
2022/02/03 02:49:13;;;;;;;3.33;2.30;;;3.80;99.90;;;;;;4976076;28;20231;-92
2022/02/03 02:51:59;;;;;;;4.90;2.53;;;3.80;99.90;;;;;;5178480;23;20257;-92
2022/02/03 02:55:05;;;;;;;4.17;2.83;;;3.80;99.90;;;;;;5015185;28;20671;-93
2022/02/03 03:29:53;;;;;;;2.60;2.00;;;4.00;99.90;;;;;;5010735;28;20229;-93
2022/02/03 03:35:34;;;;;;;1.87;1.70;;;4.00;99.90;;;;;;5030070;28;20201;-92
2022/02/03 03:38:09;;;;;;;3.60;2.33;;;3.90;99.90;;;;;;5028012;28;20220;-92
2022/02/03 03:40:48;;;;;;;2.37;2.10;;;4.00;99.90;;;;;;5030581;28;20228;-92
2022/02/03 03:43:29;;;;;;;2.67;2.07;;;4.00;99.90;;;;;;5032037;28;20233;-92
2022/02/03 03:46:10;;;;;;;2.53;2.20;;;4.00;99.90;;;;;;5034434;28;20212;-92
2022/02/03 03:48:51;;;;;;;4.27;2.10;;;4.00;99.90;;;;;;5032017;28;20708;-92
2022/02/03 03:57:01;;;;;;;4.03;2.33;;;4.10;99.90;;;;;;6027106;22;20462;-85
2022/02/03 04:31:20;;;;;;;3.30;2.10;;;4.00;99.90;;;;;;5010894;28;20198;-92
2022/02/03 04:34:24;;;;;;;1.97;1.70;;;4.00;99.90;;;;;;5008089;28;20193;-93
2022/02/03 04:43:24;;;;;;;3.40;3.10;;;4.10;99.90;;;;;;5012521;28;20230;-92
2022/02/03 04:55:37;;;;;;;3.40;2.63;;;4.20;99.90;;;;;;5005820;28;20241;-92
2022/02/03 05:04:18;;;;;;;5.57;2.83;;;4.30;99.90;;;;;;5016731;22;20225;-93
2022/02/03 05:07:12;;;;;;;4.07;2.90;;;4.30;99.90;;;;;;5016745;28;20186;-92
2022/02/03 05:10:06;;;;;;;4.73;3.00;;;4.30;99.90;;;;;;5021328;28;20241;-93
2022/02/03 05:13:15;;;;;;;5.63;2.50;;;4.30;99.90;;;;;;5186305;22;20258;-93
2022/02/03 05:19:47;;;;;;;5.97;2.70;;;4.30;99.90;;;;;;4998413;28;20210;-92
2022/02/03 06:11:50;;;;;;;5.83;4.60;;;4.30;99.90;;;;;;4987232;28;20752;-94
2022/02/03 06:15:24;;;;;;;6.17;4.80;;;4.50;99.90;;;;;;4992501;28;20902;-92
2022/02/03 06:24:14;;;;;;;6.73;5.20;;;4.60;99.90;;;;;;4995541;28;20214;-94
2022/02/03 06:29:47;;;;;;;6.30;5.70;;;4.80;99.90;;;;;;4990613;28;20235;-93
2022/02/03 06:32:19;;;;;;;8.30;5.47;;;4.90;99.90;;;;;;4998289;28;20230;-94
2022/02/03 06:34:52;;;;;;;7.53;6.00;;;5.00;99.90;;;;;;5000317;28;20195;-94
2022/02/03 06:37:27;;;;;;;6.93;5.97;;;5.00;99.90;;;;;;4999316;28;20199;-94
2022/02/03 06:39:59;;;;;;;8.30;6.10;;;5.10;99.90;;;;;;4998917;28;20225;-93
2022/02/03 06:42:34;;;;;;;7.40;6.30;;;5.10;99.90;;;;;;4990162;28;20596;-94
2022/02/03 06:45:14;;;;;;;6.43;5.83;;;5.20;99.90;;;;;;4986676;28;20207;-93
2022/02/03 06:47:53;;;;;;;7.17;6.33;;;5.20;99.90;;;;;;4991288;28;20274;-94
2022/02/03 06:50:28;;;;;;;7.30;6.33;;;5.20;99.90;;;;;;4997677;28;20230;-91
2022/02/03 06:53:05;;;;;;;8.13;6.77;;;5.20;99.90;;;;;;4997637;28;20206;-93
2022/02/03 06:55:47;;;;;;;6.43;5.50;;;5.20;99.90;;;;;;4996443;28;20215;-93
2022/02/03 06:58:28;;;;;;;7.00;6.10;;;5.30;99.90;;;;;;4995357;28;20275;-93
2022/02/03 07:01:00;;;;;;;7.60;6.00;;;5.30;99.90;;;;;;4997138;28;20215;-95
2022/02/03 07:03:47;;;;;;;6.93;6.10;;;5.30;99.90;;;;;;4992620;28;20207;-95
2022/02/03 07:06:18;;;;;;;6.20;5.60;;;5.30;99.90;;;;;;4983122;28;20607;-92
2022/02/03 07:08:54;;;;;;;8.87;6.27;;;5.30;99.90;;;;;;4981745;28;20203;-92
2022/02/03 07:11:25;;;;;;;7.10;6.10;;;5.30;99.90;;;;;;4981589;28;20341;-93
2022/02/03 07:13:59;;;;;;;7.30;6.60;;;5.40;99.90;;;;;;4980817;28;20640;-94
2022/02/03 07:16:34;;;;;;;8.73;6.93;;;5.40;99.90;;;;;;4981405;28;20287;-94
2022/02/03 07:19:05;;;;;;;7.07;6.10;;;5.40;99.90;;;;;;4985187;28;20206;-93
2022/02/03 07:21:36;;;;;;;8.73;6.37;;;5.40;99.90;;;;;;4981946;28;20628;-94
2022/02/03 07:24:07;;;;;;;6.53;5.87;;;5.40;99.90;;;;;;4984462;28;20218;-95
2022/02/03 07:26:39;;;;;;;8.07;6.77;;;5.40;99.90;;;;;;4982551;28;20326;-95
2022/02/03 07:29:13;;;;;;;9.80;6.20;;;5.40;99.90;;;;;;4984822;28;20245;-96
2022/02/03 07:31:46;;;;;;;7.33;6.43;;;5.40;99.90;;;;;;4985033;28;20350;-95
2022/02/03 07:34:18;;;;;;;6.83;6.00;;;5.40;99.90;;;;;;4991921;28;20211;-94
2022/02/03 07:36:50;;;;;;;8.57;5.83;;;5.40;99.90;;;;;;4991808;28;20274;-94
2022/02/03 07:39:22;;;;;;;6.30;5.70;;;5.40;99.90;;;;;;4991846;28;20214;-94
2022/02/03 07:41:55;;;;;;;6.93;5.43;;;5.50;99.90;;;;;;4982447;28;20207;-94
2022/02/03 07:44:28;;;;;;;7.20;5.63;;;5.50;99.90;;;;;;4982788;28;20242;-94
2022/02/03 07:46:59;;;;;;;7.43;6.00;;;5.50;99.90;;;;;;4983204;28;20322;-94
2022/02/03 07:49:31;;;;;;;8.87;6.33;;;5.40;99.90;;;;;;4981216;28;20293;-92
2022/02/03 07:52:02;;;;;;;9.37;6.10;;;5.40;99.90;;;;;;4980350;28;20242;-92
2022/02/03 07:54:35;;;;;;;6.53;5.47;;;5.40;99.90;;;;;;4981562;28;20265;-93
2022/02/03 07:57:07;;;;;;;9.27;5.50;;;5.40;99.90;;;;;;4980808;28;20274;-93
2022/02/03 07:59:40;;;;;;;5.40;4.90;;;5.40;99.90;;;;;;4980795;28;20206;-92
2022/02/03 08:02:11;;;;;;;7.50;5.37;;;5.40;99.90;;;;;;4980518;28;20286;-93
2022/02/03 08:04:46;;;;;;;6.83;5.20;;;5.40;99.90;;;;;;4981008;28;20203;-93
2022/02/03 08:07:20;;;;;;;5.63;5.03;;;5.40;99.90;;;;;;4982470;28;20241;-92
2022/02/03 08:09:57;;;;;;;6.33;4.87;;;5.40;99.90;;;;;;4982076;28;20241;-93
2022/02/03 08:12:32;;;;;;;7.10;5.23;;;5.40;99.90;;;;;;4980042;28;20234;-91
2022/02/03 08:15:04;;;;;;;5.83;4.67;;;5.40;99.90;;;;;;4980954;28;20242;-93
2022/02/03 08:17:39;;;;;;;5.77;4.37;;;5.40;99.90;;;;;;4981332;28;20216;-93
2022/02/03 08:20:15;;;;;;;6.30;5.00;;;5.40;99.90;;;;;;4986232;28;20210;-93
2022/02/03 08:22:53;;;;;;;6.03;4.60;;;5.40;99.90;;;;;;4981749;28;20203;-93
2022/02/03 08:25:28;;;;;;;7.07;4.17;;;5.40;99.90;;;;;;4991622;28;20281;-93
2022/02/03 08:30:58;;;;;;;8.40;4.60;;;5.40;99.90;;;;;;4995359;28;20237;-94
2022/02/03 08:33:31;;;;;;;5.03;4.23;;;5.40;99.90;;;;;;4994665;28;20234;-94
2022/02/03 08:36:05;;;;;;;4.27;3.80;;;5.50;99.90;;;;;;4981234;28;20203;-93
2022/02/03 08:38:46;;;;;;;4.90;3.97;;;5.50;99.90;;;;;;4993257;28;20561;-93
2022/02/03 08:41:18;;;;;;;4.53;3.50;;;5.50;99.90;;;;;;5002205;28;20241;-92
2022/02/03 08:43:49;;;;;;;4.63;3.50;;;5.50;99.90;;;;;;5001241;28;20221;-93
2022/02/03 08:46:24;;;;;;;4.60;3.83;;;5.40;99.90;;;;;;5003744;28;20198;-93
2022/02/03 08:48:57;;;;;;;6.60;4.00;;;5.40;99.90;;;;;;5004235;28;20197;-93
2022/02/03 08:51:28;;;;;;;5.30;4.10;;;5.40;99.90;;;;;;5015866;28;20226;-93
2022/02/03 08:54:06;;;;;;;8.17;3.80;;;5.40;99.90;;;;;;5014952;28;20213;-94
2022/02/03 08:56:45;;;;;;;4.87;3.43;;;5.40;99.90;;;;;;5014247;28;20210;-95
2022/02/03 08:59:34;;;;;;;3.73;3.17;;;5.50;99.90;;;;;;5014564;28;20194;-93
2022/02/03 09:37:04;;;;;;;3.50;3.20;;;5.30;99.90;;;;;;4980729;28;20226;-95
2022/02/03 09:40:04;;;;;;;4.10;3.20;;;5.30;99.90;;;;;;4993040;28;20214;-93
2022/02/03 09:59:46;;;;;;;3.20;2.90;;;5.30;99.90;;;;;;4619647;28;9999906;-93
2022/02/03 10:02:25;;;;;;;3.30;2.77;;;5.40;99.90;;;;;;4961256;29;20249;-92
2022/02/03 10:04:58;;;;;;;3.27;2.97;;;5.40;99.90;;;;;;4961769;29;20215;-94
2022/02/03 10:07:34;;;;;;;3.20;2.90;;;5.30;99.90;;;;;;4961165;28;20246;-93
2022/02/03 10:10:15;;;;;;;3.63;2.93;;;5.30;99.90;;;;;;4962681;29;20219;-92
2022/02/03 10:12:49;;;;;;;3.30;2.80;;;5.30;99.90;;;;;;4962093;28;20281;-93
2022/02/03 10:15:23;;;;;;;3.57;2.70;;;5.30;99.90;;;;;;4964472;28;20636;-93
2022/02/03 10:17:57;;;;;;;3.50;3.07;;;5.30;99.90;;;;;;4962119;28;20235;-92
2022/02/03 10:20:29;;;;;;;2.70;2.50;;;5.30;99.90;;;;;;4965118;28;20191;-92
2022/02/03 10:23:05;;;;;;;2.93;2.67;;;5.30;99.90;;;;;;4962648;29;20207;-93
2022/02/03 10:25:38;;;;;;;4.27;3.10;;;5.30;99.90;;;;;;4962251;28;20242;-93
2022/02/03 10:28:13;;;;;;;3.00;2.57;;;5.30;99.90;;;;;;4965190;28;20223;-93
2022/02/03 10:30:47;;;;;;;2.93;2.43;;;5.30;99.90;;;;;;4966197;28;20203;-94
2022/02/03 10:33:19;;;;;;;2.60;2.40;;;5.40;99.90;;;;;;4981549;28;20209;-94
2022/02/03 10:35:55;;;;;;;2.03;1.83;;;5.30;99.90;;;;;;4981407;28;20664;-93
2022/02/03 10:50:17;;;;;;;1.53;1.43;;;5.30;99.90;;;;;;4981371;28;20211;-95
2022/02/03 10:53:23;;;;;;;1.67;1.47;;;5.30;99.90;;;;;;4981269;28;20305;-94
2022/02/03 10:56:14;;;;;;;1.13;1.03;;;5.40;99.90;;;;;;4980973;28;20242;-94
2022/02/03 10:59:07;;;;;;;4.90;1.30;;;5.30;99.90;;;;;;4979944;28;20215;-95
2022/02/03 11:04:48;;;;;;;1.20;0.93;;;5.30;99.90;;;;;;4980480;28;20287;-94
2022/02/03 11:07:29;;;;;;;1.17;1.07;;;5.30;99.90;;;;;;4980222;28;20659;-93
2022/02/03 11:10:09;;;;;;;0.90;0.90;;;5.30;99.90;;;;;;4980463;28;20382;-92
2022/02/03 11:12:55;;;;;;;0.80;0.80;;;5.30;99.90;;;;;;4981438;28;20235;-92
2022/02/03 11:15:29;;;;;;;1.10;0.80;;;5.30;99.90;;;;;;4996321;28;20226;-93
2022/02/03 11:18:01;;;;;;;0.80;0.80;;;5.30;99.90;;;;;;4997827;28;20226;-93
2022/02/03 11:20:35;;;;;;;0.80;0.70;;;5.30;99.90;;;;;;4999027;28;20266;-93
2022/02/03 11:23:19;;;;;;;0.70;0.70;;;5.30;99.90;;;;;;4997571;28;20242;-94
2022/02/03 11:26:03;;;;;;;0.70;0.70;;;5.30;99.90;;;;;;4994140;28;20221;-93
2022/02/03 11:29:07;;;;;;;0.50;0.50;;;5.30;99.90;;;;;;4981086;28;20207;-93
2022/02/03 11:32:03;;;;;;;0.40;0.40;;;5.30;99.90;;;;;;4980300;28;20239;-93
2022/02/03 11:38:07;;;;;;;0.37;0.37;;;5.30;99.90;;;;;;4952083;28;20245;-93
2022/02/03 11:41:00;;;;;;;0.40;0.40;;;5.40;99.90;;;;;;4991516;28;20218;-92
2022/02/03 11:44:11;;;;;;;0.70;0.40;;;5.30;99.90;;;;;;4986626;28;20298;-95
2022/02/03 12:05:01;;;;;;;0.40;0.40;;;5.30;99.90;;;;;;4970074;28;20274;-95
2022/02/03 12:08:01;;;;;;;0.83;0.60;;;5.30;99.90;;;;;;4980581;28;20226;-95
2022/02/03 12:13:42;;;;;;;3.57;0.87;;;5.30;99.90;;;;;;4963165;29;20662;-94
2022/02/03 12:16:23;;;;;;;2.13;0.70;;;5.40;99.90;;;;;;4962771;28;20219;-93
2022/02/03 12:19:18;;;;;;;0.63;0.63;;;5.40;99.90;;;;;;4977289;28;20200;-95
2022/02/03 12:22:07;;;;;;;0.80;0.80;;;5.40;99.90;;;;;;4976957;29;20198;-93
2022/02/03 12:24:48;;;;;;;1.23;0.80;;;5.40;99.90;;;;;;4976846;28;20215;-92
2022/02/03 12:27:34;;;;;;;0.97;0.70;;;5.40;99.90;;;;;;4976460;28;20215;-93
2022/02/03 12:30:23;;;;;;;0.83;0.80;;;5.30;99.90;;;;;;4971848;28;20304;-93
2022/02/03 12:36:57;;;;;;;2.17;1.20;;;5.40;99.90;;;;;;4979267;28;20580;-93
2022/02/03 12:38:57;;;;;;;1.27;1.20;;;5.30;99.90;;;;;;4969527;28;20211;-93
2022/02/03 12:41:36;;;;;;;1.00;0.90;;;5.30;99.90;;;;;;4979728;28;20217;-93
2022/02/03 12:44:21;;;;;;;1.53;1.10;;;5.40;99.90;;;;;;4982909;28;20210;-92
2022/02/03 12:46:54;;;;;;;1.43;1.23;;;5.40;99.90;;;;;;4979271;28;20257;-93
2022/02/03 12:49:25;;;;;;;1.30;0.97;;;5.40;99.90;;;;;;4993201;28;20202;-94
2022/02/03 12:51:57;;;;;;;0.90;0.90;;;5.40;99.90;;;;;;4998114;28;20653;-95
2022/02/03 12:54:34;;;;;;;1.20;1.03;;;5.40;99.90;;;;;;4998345;28;20216;-94
2022/02/03 12:57:06;;;;;;;1.40;1.00;;;5.40;99.90;;;;;;5001405;28;20210;-95
2022/02/03 12:59:39;;;;;;;1.10;1.10;;;5.40;99.90;;;;;;5015386;28;20205;-95
2022/02/03 13:02:15;;;;;;;1.20;1.10;;;5.40;99.90;;;;;;4996623;28;20269;-93
2022/02/03 13:04:46;;;;;;;1.20;0.83;;;5.40;99.90;;;;;;4996511;28;20199;-94
2022/02/03 13:07:19;;;;;;;1.57;1.20;;;5.40;99.90;;;;;;4995930;28;20231;-94
2022/02/03 13:10:03;;;;;;;1.40;1.30;;;5.40;99.90;;;;;;4978206;28;20219;-94
2022/02/03 13:12:38;;;;;;;0.90;0.90;;;5.40;99.90;;;;;;4961657;28;20759;-94
2022/02/03 13:15:11;;;;;;;3.27;3.07;;;5.40;99.90;;;;;;4961737;28;20211;-94
2022/02/03 13:17:56;;;;;;;1.10;1.00;;;5.40;99.90;;;;;;4961404;29;20220;-95
2022/02/03 13:20:38;;;;;;;1.40;1.30;;;5.40;99.90;;;;;;4960679;28;20279;-94
2022/02/03 13:23:20;;;;;;;1.10;1.00;;;5.40;99.90;;;;;;4960826;29;20235;-94
2022/02/03 13:26:03;;;;;;;1.17;1.07;;;5.40;99.90;;;;;;4960895;28;20210;-94
2022/02/03 13:28:44;;;;;;;1.27;1.00;;;5.40;99.90;;;;;;4977531;28;20333;-92
2022/02/03 13:31:22;;;;;;;1.03;0.97;;;5.50;99.90;;;;;;4982241;28;20207;-92
2022/02/03 13:34:03;;;;;;;1.07;1.00;;;5.50;99.90;;;;;;4981991;28;20219;-94
2022/02/03 13:36:39;;;;;;;1.07;0.97;;;5.40;99.90;;;;;;4980347;28;20203;-93
2022/02/03 13:39:24;;;;;;;0.97;0.97;;;5.40;99.90;;;;;;4993569;28;20202;-92
2022/02/03 13:42:11;;;;;;;0.97;0.90;;;5.40;99.90;;;;;;4994730;28;20210;-92
2022/02/03 13:44:43;;;;;;;1.03;0.70;;;5.40;99.90;;;;;;4998671;28;20238;-95
2022/02/03 13:47:24;;;;;;;1.50;1.07;;;5.50;99.90;;;;;;4999889;28;20222;-92
2022/02/03 13:50:09;;;;;;;1.10;1.00;;;5.50;99.90;;;;;;5004610;28;20210;-95
2022/02/03 13:52:47;;;;;;;1.30;1.20;;;5.50;99.90;;;;;;4992672;28;20238;-94
2022/02/03 14:21:40;;;;;;;0.80;0.80;;;5.50;99.90;;;;;;4978402;28;20274;-95
2022/02/03 14:27:23;;;;;;;1.27;1.17;;;5.50;99.90;;;;;;4980995;28;20636;-94
2022/02/03 14:30:00;;;;;;;1.27;1.17;;;5.50;99.90;;;;;;4981682;28;20214;-94
2022/02/03 14:32:37;;;;;;;1.17;1.07;;;5.50;99.90;;;;;;4982248;28;20224;-93
2022/02/03 14:35:11;;;;;;;3.43;1.53;;;5.60;99.90;;;;;;4981413;28;20242;-92
2022/02/03 14:37:48;;;;;;;2.67;1.77;;;5.60;99.90;;;;;;4981179;28;20227;-94
2022/02/03 14:40:33;;;;;;;2.20;2.00;;;5.60;99.90;;;;;;4981701;28;20667;-95
2022/02/03 14:43:06;;;;;;;3.70;2.20;;;5.50;99.90;;;;;;4981895;28;20215;-93
2022/02/03 14:45:37;;;;;;;3.10;2.80;;;5.60;99.90;;;;;;4981219;28;20267;-93
2022/02/03 14:48:14;;;;;;;3.33;3.03;;;5.60;99.90;;;;;;4981929;28;20286;-94
2022/02/03 14:50:46;;;;;;;4.13;3.10;;;5.60;99.90;;;;;;4982790;28;20637;-94
2022/02/03 14:53:30;;;;;;;2.97;2.67;;;5.50;99.90;;;;;;4986752;28;20298;-94
2022/02/03 14:58:49;;;;;;;3.77;3.47;;;5.60;99.90;;;;;;4978652;28;20198;-93
2022/02/03 15:01:20;;;;;;;3.50;3.20;;;5.60;99.90;;;;;;4989096;28;20211;-93
2022/02/03 15:03:56;;;;;;;4.40;4.00;;;5.60;99.90;;;;;;4988654;28;20250;-93
2022/02/03 15:06:34;;;;;;;4.83;4.10;;;5.50;99.90;;;;;;4989422;28;20210;-96
2022/02/03 15:09:18;;;;;;;4.90;4.50;;;5.60;99.90;;;;;;4972585;28;20291;-94
2022/02/03 15:12:05;;;;;;;4.00;3.70;;;5.60;99.90;;;;;;4965433;28;20211;-94
2022/02/03 15:14:42;;;;;;;5.83;4.33;;;5.60;99.90;;;;;;4963169;28;20255;-94
2022/02/03 15:17:14;;;;;;;4.17;3.87;;;5.60;99.90;;;;;;4964689;28;20215;-94
2022/02/03 15:19:54;;;;;;;4.70;3.97;;;5.50;99.90;;;;;;4967786;28;20203;-94
2022/02/03 15:22:26;;;;;;;4.30;3.90;;;5.60;99.90;;;;;;4973110;28;20219;-95
2022/02/03 15:24:57;;;;;;;5.90;4.50;;;5.60;99.90;;;;;;4966234;28;20223;-95
2022/02/03 15:27:31;;;;;;;20.53;4.37;;;5.60;99.90;;;;;;4971155;28;20211;-94
2022/02/03 15:30:05;;;;;;;4.50;4.10;;;5.60;99.90;;;;;;4974045;28;20255;-93
2022/02/03 15:35:23;;;;;;;4.87;4.10;;;5.60;99.90;;;;;;5183948;22;20253;-93
2022/02/03 15:37:56;;;;;;;4.07;3.67;;;5.60;99.90;;;;;;5002108;28;20211;-94
2022/02/03 15:40:29;;;;;;;4.00;3.57;;;5.60;99.90;;;;;;5011445;28;20233;-95
2022/02/03 15:43:07;;;;;;;4.23;3.83;;;5.60;99.90;;;;;;5011376;28;20257;-93
2022/02/03 15:45:42;;;;;;;3.77;3.47;;;5.60;99.90;;;;;;5012036;28;20221;-92
2022/02/03 15:48:35;;;;;;;4.27;3.67;;;5.60;99.90;;;;;;5013793;28;20197;-94
2022/02/03 16:00:48;;;;;;;4.37;3.20;;;5.60;99.90;;;;;;4981850;28;20196;-92
2022/02/03 16:03:23;;;;;;;2.60;2.40;;;5.60;99.90;;;;;;5014954;28;20217;-94
2022/02/03 16:17:15;;;;;;;2.33;2.13;;;5.70;99.90;;;;;;5010998;28;20202;-93
2022/02/03 16:19:55;;;;;;;2.50;2.30;;;5.70;99.90;;;;;;5011051;28;20241;-93
2022/02/03 16:22:37;;;;;;;1.87;1.77;;;5.70;99.90;;;;;;5013052;28;20206;-94
2022/02/03 16:25:22;;;;;;;3.37;2.97;;;5.70;99.90;;;;;;5014120;28;20244;-94
2022/02/03 16:51:03;;;;;;;1.90;1.80;;;5.70;99.90;;;;;;4959943;28;20214;-94
2022/02/03 16:53:34;;;;;;;1.50;1.40;;;5.70;99.90;;;;;;4997984;28;20721;-94
2022/02/03 16:56:08;;;;;;;1.47;1.37;;;5.70;99.90;;;;;;4998887;28;20249;-93
2022/02/03 16:58:45;;;;;;;2.60;2.50;;;5.70;99.90;;;;;;5000361;28;20386;-93
2022/02/03 17:01:19;;;;;;;1.87;1.67;;;5.70;99.90;;;;;;5292278;22;20193;-92
2022/02/03 17:03:50;;;;;;;1.13;1.13;;;5.70;99.90;;;;;;5005995;28;20233;-94
2022/02/03 17:06:21;;;;;;;1.00;1.00;;;5.80;99.90;;;;;;5002390;28;20800;-94
2022/02/03 17:08:52;;;;;;;0.90;0.90;;;5.80;99.90;;;;;;5000705;28;20206;-93
2022/02/03 17:11:22;;;;;;;0.90;0.90;;;5.80;99.90;;;;;;5004644;28;20206;-93
2022/02/03 17:13:56;;;;;;;1.83;1.40;;;5.90;99.90;;;;;;5003888;28;20245;-94
2022/02/03 17:16:27;;;;;;;0.83;0.83;;;5.90;99.90;;;;;;5001777;28;20234;-93
2022/02/03 17:18:58;;;;;;;2.10;0.97;;;5.90;99.90;;;;;;5003329;28;20225;-93
2022/02/03 17:21:32;;;;;;;0.93;0.90;;;5.90;99.90;;;;;;5001764;28;20301;-94
2022/02/03 17:24:03;;;;;;;1.63;0.80;;;5.90;99.90;;;;;;5009421;28;20266;-94
2022/02/03 17:26:47;;;;;;;0.73;0.57;;;5.90;99.90;;;;;;5008279;28;20250;-94
2022/02/03 17:29:30;;;;;;;4.07;0.80;;;5.90;99.90;;;;;;5009329;28;20214;-92
2022/02/03 17:32:10;;;;;;;3.23;1.90;;;6.00;99.90;;;;;;5009453;28;20206;-93
2022/02/03 18:03:23;;;;;;;0.83;0.70;;;6.20;99.90;;;;;;4987347;28;20206;-94
2022/02/03 18:08:55;;;;;;;1.00;0.70;;;6.30;99.90;;;;;;4969245;28;20270;-93
2022/02/03 18:11:45;;;;;;;2.93;1.30;;;6.20;99.90;;;;;;4994447;28;20243;-94
2022/02/03 18:31:44;;;;;;;1.43;0.80;;;6.40;99.90;;;;;;4984137;28;20203;-93
2022/02/03 18:34:40;;;;;;;0.73;0.50;;;6.40;99.90;;;;;;4988220;28;20211;-94
2022/02/03 18:37:30;;;;;;;1.03;0.60;;;6.40;99.90;;;;;;4985934;28;20217;-93
2022/02/03 18:51:38;;;;;;;0.93;0.60;;;6.50;99.90;;;;;;4950773;28;20223;-92
2022/02/03 18:54:26;;;;;;;1.23;0.70;;;6.60;99.90;;;;;;4969830;28;20207;-92
2022/02/03 18:57:11;;;;;;;0.60;0.60;;;6.60;99.90;;;;;;4980654;28;20238;-93
2022/02/03 19:02:59;;;;;;;0.33;0.33;;;6.60;99.90;;;;;;5007806;28;20269;-92
2022/02/03 20:02:46;;;;;;;0.20;0.20;;;7.20;99.90;;;;;;4933327;28;20228;-91
2022/02/03 20:05:28;;;;;;;0.70;0.40;;;7.30;99.90;;;;;;5170849;22;20274;-92
2022/02/03 20:08:09;;;;;;;0.40;0.40;;;7.30;99.90;;;;;;4987419;28;20207;-93
2022/02/03 20:10:43;;;;;;;0.50;0.50;;;7.40;99.90;;;;;;4989233;28;20211;-92
2022/02/03 20:13:15;;;;;;;0.70;0.50;;;7.40;99.90;;;;;;4986416;28;20214;-93
2022/02/03 20:15:48;;;;;;;0.50;0.50;;;7.40;99.90;;;;;;4985884;28;20234;-93
2022/02/03 20:18:22;;;;;;;0.40;0.40;;;7.40;99.90;;;;;;4983699;28;20248;-93
2022/02/03 20:20:53;;;;;;;0.40;0.40;;;7.40;99.90;;;;;;4984318;28;20216;-93
2022/02/03 20:23:24;;;;;;;0.50;0.47;;;7.40;99.90;;;;;;4984466;28;20218;-93
2022/02/03 20:25:58;;;;;;;2.40;0.50;;;7.20;99.90;;;;;;4985201;28;20269;-94
2022/02/03 20:28:32;;;;;;;1.47;0.50;;;7.30;99.90;;;;;;4987286;28;20209;-92
2022/02/03 20:31:03;;;;;;;1.17;0.70;;;7.40;99.90;;;;;;4991261;28;20207;-93
2022/02/03 20:33:37;;;;;;;1.77;0.60;;;7.40;99.90;;;;;;4997775;28;20210;-93
2022/02/03 20:36:09;;;;;;;0.80;0.50;;;7.40;99.90;;;;;;5293313;22;20229;-91
2022/02/03 20:38:41;;;;;;;0.90;0.50;;;7.50;99.90;;;;;;5017030;28;20201;-93
2022/02/03 20:41:12;;;;;;;0.50;0.50;;;7.60;99.90;;;;;;5014391;28;20229;-94
2022/02/03 20:43:44;;;;;;;0.73;0.40;;;7.50;99.90;;;;;;5012942;28;20206;-93
2022/02/03 20:46:16;;;;;;;0.60;0.40;;;7.50;99.90;;;;;;5012304;28;20226;-94
2022/02/03 20:48:51;;;;;;;0.70;0.50;;;7.60;99.90;;;;;;5007257;28;20210;-93
2022/02/03 20:51:24;;;;;;;0.80;0.63;;;7.60;99.90;;;;;;5008230;28;20210;-93
2022/02/03 20:53:55;;;;;;;0.50;0.50;;;7.70;99.90;;;;;;5002683;28;20241;-92
2022/02/03 20:56:26;;;;;;;0.40;0.40;;;7.60;99.90;;;;;;5007359;28;20245;-93
2022/02/03 20:59:00;;;;;;;1.00;0.60;;;7.50;99.90;;;;;;5002821;28;20337;-93
2022/02/03 21:01:35;;;;;;;0.97;0.83;;;7.60;99.90;;;;;;5006576;28;20205;-93
2022/02/03 21:04:13;;;;;;;0.50;0.50;;;7.70;99.90;;;;;;5000839;28;20624;-93
2022/02/03 21:06:45;;;;;;;0.57;0.57;;;7.60;99.90;;;;;;5000635;28;20206;-92
2022/02/03 21:09:17;;;;;;;2.00;0.50;;;7.60;99.90;;;;;;5003123;28;20217;-93
2022/02/03 21:11:48;;;;;;;0.70;0.60;;;7.70;99.90;;;;;;4999059;28;20293;-94
2022/02/03 21:14:20;;;;;;;0.50;0.50;;;7.70;99.90;;;;;;5005356;28;20234;-93
2022/02/03 21:16:55;;;;;;;0.70;0.50;;;7.70;99.90;;;;;;5005308;28;20225;-93
2022/02/03 21:19:28;;;;;;;0.70;0.70;;;7.60;99.90;;;;;;5010824;28;20206;-92
2022/02/03 21:21:59;;;;;;;1.27;1.00;;;7.60;99.90;;;;;;5005874;28;20212;-93
2022/02/03 21:24:31;;;;;;;0.60;0.60;;;7.50;99.90;;;;;;5011799;28;20230;-92
2022/02/03 21:27:03;;;;;;;1.67;0.60;;;7.60;99.90;;;;;;5011390;28;20207;-92
2022/02/03 21:29:39;;;;;;;0.50;0.50;;;7.60;99.90;;;;;;5014247;28;20214;-91
2022/02/03 21:32:21;;;;;;;1.93;0.60;;;7.60;99.90;;;;;;5015329;28;20207;-93
2022/02/03 21:34:56;;;;;;;2.70;0.67;;;7.50;99.90;;;;;;5013983;28;20209;-94
2022/02/03 21:37:27;;;;;;;0.93;0.50;;;7.50;99.90;;;;;;5010517;28;20282;-93
2022/02/03 21:39:58;;;;;;;0.40;0.40;;;7.60;99.90;;;;;;4992121;28;20230;-93
2022/02/03 21:42:30;;;;;;;0.97;0.60;;;7.50;99.90;;;;;;4995582;28;20214;-93
2022/02/03 21:45:01;;;;;;;0.80;0.50;;;7.50;99.90;;;;;;4992885;28;20214;-93
2022/02/03 21:47:33;;;;;;;0.50;0.50;;;7.50;99.90;;;;;;4990854;28;20235;-94
2022/02/03 21:50:06;;;;;;;0.50;0.50;;;7.50;99.90;;;;;;4984425;28;20210;-93
2022/02/03 21:52:44;;;;;;;1.53;0.67;;;7.50;99.90;;;;;;4985458;28;20532;-93
2022/02/03 21:55:15;;;;;;;1.33;0.80;;;7.60;99.90;;;;;;4983168;28;20225;-92
2022/02/03 21:57:49;;;;;;;0.87;0.60;;;7.60;99.90;;;;;;4984052;28;20273;-94
2022/02/03 22:00:21;;;;;;;0.70;0.50;;;7.60;99.90;;;;;;4982358;28;20690;-92
2022/02/03 22:02:53;;;;;;;1.63;0.60;;;7.60;99.90;;;;;;4985338;28;20600;-92
2022/02/03 22:05:25;;;;;;;0.80;0.60;;;7.70;99.90;;;;;;4984272;28;20230;-92
2022/02/03 22:07:56;;;;;;;2.20;0.50;;;7.80;99.90;;;;;;4989247;28;20292;-93
2022/02/03 22:10:28;;;;;;;1.67;0.60;;;7.80;99.90;;;;;;5021768;28;20214;-92
2022/02/03 22:12:59;;;;;;;0.70;0.70;;;7.80;99.90;;;;;;5024741;28;20209;-93
2022/02/03 22:15:30;;;;;;;0.80;0.50;;;7.60;99.90;;;;;;5024078;28;20205;-93
2022/02/03 22:18:02;;;;;;;0.60;0.60;;;7.60;99.90;;;;;;5024096;28;20283;-93
2022/02/03 22:20:39;;;;;;;2.13;0.47;;;7.60;99.90;;;;;;5027202;28;20212;-93
2022/02/03 22:23:30;;;;;;;0.70;0.60;;;7.70;99.90;;;;;;5028305;28;20240;-92
2022/02/03 22:29:28;;;;;;;1.10;0.60;;;7.70;99.90;;;;;;5030791;28;20209;-92
2022/02/03 22:46:10;;;;;;;0.93;0.50;;;7.90;99.90;;;;;;5012231;28;20209;-93
2022/02/03 22:48:45;;;;;;;1.13;0.60;;;7.80;99.90;;;;;;5018425;28;20211;-93
2022/02/03 22:51:16;;;;;;;1.27;0.67;;;7.80;99.90;;;;;;5019637;28;20214;-93
2022/02/03 22:53:49;;;;;;;0.60;0.50;;;7.80;99.90;;;;;;5018663;28;20185;-92
2022/02/03 22:56:27;;;;;;;0.70;0.60;;;7.80;99.90;;;;;;5018200;28;20236;-94
2022/02/03 23:07:15;;;;;;;0.60;0.53;;;7.90;99.90;;;;;;5124663;22;20258;-96
2022/02/03 23:09:56;;;;;;;0.40;0.40;;;8.00;99.90;;;;;;4992741;28;20217;-93
2022/02/03 23:12:56;;;;;;;0.60;0.60;;;8.20;99.90;;;;;;4990976;28;20588;-91
2022/02/03 23:18:29;;;;;;;2.73;0.60;;;8.40;99.90;;;;;;4991283;28;20265;-94
2022/02/03 23:21:28;;;;;;;1.33;0.47;;;8.40;99.90;;;;;;4994819;28;20310;-92